createdAt,value
2022-11-09T00:01:02.448Z,11.21
2022-11-09T00:03:31.859Z,11.22
2022-11-09T00:06:00.899Z,11.17
2022-11-09T00:08:29.399Z,11.16
2022-11-09T00:11:03.513Z,11.07
2022-11-09T00:13:31.326Z,11.11
2022-11-09T00:15:59.795Z,11.13
2022-11-09T00:18:27.582Z,11.08
2022-11-09T00:20:57.116Z,10.92
2022-11-09T00:23:24.966Z,11.02
2022-11-09T00:25:52.777Z,10.95
2022-11-09T00:28:20.587Z,10.91
2022-11-09T00:30:48.520Z,10.88
2022-11-09T00:33:17.725Z,10.85
2022-11-09T00:35:45.733Z,10.80
2022-11-09T00:38:14.875Z,10.76
2022-11-09T00:40:42.704Z,10.72
2022-11-09T00:43:10.653Z,10.67
2022-11-09T00:45:40.692Z,10.64
2022-11-09T00:48:08.672Z,10.65
2022-11-09T00:50:36.867Z,10.70
2022-11-09T00:53:04.922Z,10.72
2022-11-09T00:55:34.151Z,10.73
2022-11-09T00:58:01.962Z,10.70
2022-11-09T01:00:29.880Z,10.65
2022-11-09T01:02:57.726Z,10.58
2022-11-09T01:05:26.481Z,10.56
2022-11-09T01:07:54.324Z,10.53
2022-11-09T01:10:24.124Z,10.54
2022-11-09T01:12:56.194Z,10.48
2022-11-09T01:15:24.208Z,10.58
2022-11-09T01:17:52.070Z,10.65
2022-11-09T01:20:19.916Z,10.73
2022-11-09T01:22:47.719Z,10.81
2022-11-09T01:25:15.643Z,10.87
2022-11-09T01:27:43.433Z,10.90
2022-11-09T01:30:14.076Z,10.92
2022-11-09T01:32:41.863Z,10.96
2022-11-09T01:35:10.307Z,10.96
2022-11-09T01:37:38.155Z,11.01
2022-11-09T01:40:07.241Z,11.00
2022-11-09T01:42:37.275Z,11.02
2022-11-09T01:45:22.940Z,11.01
2022-11-09T01:47:56.820Z,11.00
2022-11-09T01:50:32.787Z,10.99
2022-11-09T01:53:02.953Z,11.02
2022-11-09T01:55:31.634Z,11.06
2022-11-09T01:58:04.264Z,11.13
2022-11-09T02:00:35.231Z,11.17
2022-11-09T02:03:08.252Z,11.20
2022-11-09T02:05:39.662Z,11.22
2022-11-09T02:08:09.747Z,11.23
2022-11-09T02:10:45.163Z,11.29
2022-11-09T02:13:15.757Z,11.32
2022-11-09T02:15:46.090Z,11.34
2022-11-09T02:18:15.336Z,11.33
2022-11-09T02:20:50.283Z,11.33
2022-11-09T02:23:19.375Z,11.37
2022-11-09T02:25:52.112Z,11.40
2022-11-09T02:28:20.919Z,11.39
2022-11-09T02:30:53.264Z,11.41
2022-11-09T02:33:21.674Z,11.43
2022-11-09T02:35:51.929Z,11.41
2022-11-09T02:38:19.872Z,11.42
2022-11-09T02:40:52.103Z,11.42
2022-11-09T02:43:21.124Z,11.44
2022-11-09T02:45:49.498Z,11.47
2022-11-09T02:48:17.890Z,11.50
2022-11-09T02:50:45.724Z,11.45
2022-11-09T02:53:14.960Z,11.51
2022-11-09T02:55:45.699Z,11.49
2022-11-09T02:58:14.555Z,11.58
2022-11-09T03:00:42.950Z,11.58
2022-11-09T03:03:13.617Z,11.61
2022-11-09T03:05:44.789Z,11.61
2022-11-09T03:08:15.542Z,11.62
2022-11-09T03:10:43.499Z,11.60
2022-11-09T03:13:11.624Z,11.58
2022-11-09T03:15:39.543Z,11.40
2022-11-09T03:18:09.039Z,11.53
2022-11-09T03:20:36.896Z,11.55
2022-11-09T03:23:04.751Z,11.51
2022-11-09T03:25:36.639Z,11.48
2022-11-09T03:28:07.500Z,11.48
2022-11-09T03:30:36.105Z,11.45
2022-11-09T03:33:09.918Z,11.46
2022-11-09T03:35:38.725Z,11.51
2022-11-09T03:38:07.570Z,11.53
2022-11-09T03:40:37.857Z,11.54
2022-11-09T03:43:06.045Z,11.57
2022-11-09T03:45:34.344Z,11.59
2022-11-09T03:48:02.243Z,11.60
2022-11-09T03:50:31.517Z,11.60
2022-11-09T03:52:59.963Z,11.59
2022-11-09T03:55:28.579Z,11.61
2022-11-09T03:57:57.716Z,11.54
2022-11-09T04:00:26.457Z,11.62
2022-11-09T04:02:54.362Z,11.60
2022-11-09T04:05:23.006Z,11.60
2022-11-09T04:07:52.228Z,11.60
2022-11-09T04:10:20.568Z,11.60
2022-11-09T04:12:48.632Z,11.59
2022-11-09T04:15:18.295Z,11.60
2022-11-09T04:17:46.120Z,11.61
2022-11-09T04:20:14.164Z,11.61
2022-11-09T04:22:41.976Z,11.60
2022-11-09T04:25:10.071Z,11.60
2022-11-09T04:27:37.879Z,11.61
2022-11-09T04:30:06.789Z,11.60
2022-11-09T04:32:35.943Z,11.57
2022-11-09T04:35:04.064Z,11.59
2022-11-09T04:37:31.902Z,11.61
2022-11-09T04:39:59.751Z,11.61
2022-11-09T04:42:27.578Z,11.57
2022-11-09T04:44:55.408Z,11.52
2022-11-09T04:47:23.223Z,11.52
2022-11-09T04:49:52.620Z,11.49
2022-11-09T04:52:20.447Z,11.52
2022-11-09T04:54:48.244Z,11.54
2022-11-09T04:57:16.302Z,11.54
2022-11-09T04:59:44.097Z,11.52
2022-11-09T05:02:11.912Z,11.57
2022-11-09T05:04:39.864Z,11.52
2022-11-09T05:07:09.071Z,11.53
2022-11-09T05:09:36.968Z,11.54
2022-11-09T05:12:05.051Z,11.55
2022-11-09T05:14:32.855Z,11.54
2022-11-09T05:17:00.706Z,11.59
2022-11-09T05:19:28.562Z,11.59
2022-11-09T05:21:56.364Z,11.60
2022-11-09T05:24:24.553Z,11.62
2022-11-09T05:26:53.587Z,11.59
2022-11-09T05:29:21.395Z,11.57
2022-11-09T05:31:52.216Z,11.58
2022-11-09T05:34:20.439Z,11.59
2022-11-09T05:36:48.259Z,11.59
2022-11-09T05:39:16.099Z,11.62
2022-11-09T05:41:45.260Z,11.58
2022-11-09T05:44:13.067Z,11.53
2022-11-09T05:46:40.860Z,11.49
2022-11-09T05:49:08.750Z,11.39
2022-11-09T05:51:36.545Z,11.46
2022-11-09T05:54:04.401Z,11.44
2022-11-09T05:56:32.216Z,11.47
2022-11-09T05:59:01.399Z,11.44
2022-11-09T06:01:29.249Z,11.47
2022-11-09T06:03:57.096Z,11.49
2022-11-09T06:06:24.958Z,11.41
2022-11-09T06:08:52.832Z,11.48
2022-11-09T06:11:23.863Z,11.45
2022-11-09T06:13:53.242Z,11.52
2022-11-09T06:16:22.778Z,11.52
2022-11-09T06:18:50.784Z,11.55
2022-11-09T06:21:18.993Z,11.57
2022-11-09T06:23:46.842Z,11.58
2022-11-09T06:26:14.707Z,11.55
2022-11-09T06:28:42.923Z,11.52
2022-11-09T06:31:13.583Z,11.50
2022-11-09T06:33:42.939Z,11.53
2022-11-09T06:36:11.644Z,11.64
2022-11-09T06:38:39.612Z,11.72
2022-11-09T06:41:07.866Z,11.80
2022-11-09T06:43:35.674Z,11.82
2022-11-09T06:46:04.798Z,11.80
2022-11-09T06:48:32.718Z,11.84
2022-11-09T06:51:02.389Z,11.82
2022-11-09T06:53:31.146Z,11.78
2022-11-09T06:55:59.804Z,11.72
2022-11-09T06:58:28.277Z,11.72
2022-11-09T07:00:56.663Z,11.80
2022-11-09T07:03:25.328Z,11.81
2022-11-09T07:05:53.821Z,11.84
2022-11-09T07:08:22.991Z,11.84
2022-11-09T07:10:50.921Z,11.77
2022-11-09T07:13:19.038Z,11.73
2022-11-09T07:15:47.129Z,11.69
2022-11-09T07:18:14.956Z,11.68
2022-11-09T07:20:42.815Z,11.66
2022-11-09T07:23:10.616Z,11.71
2022-11-09T07:25:39.784Z,11.78
2022-11-09T07:28:09.464Z,11.84
2022-11-09T07:30:37.914Z,11.89
2022-11-09T07:33:12.298Z,11.95
2022-11-09T07:35:40.177Z,12.03
2022-11-09T07:38:08.503Z,12.07
2022-11-09T07:40:36.979Z,12.03
2022-11-09T07:43:07.289Z,12.11
2022-11-09T07:45:36.743Z,12.17
2022-11-09T07:48:06.515Z,12.21
2022-11-09T07:50:35.936Z,12.24
2022-11-09T07:53:05.515Z,12.28
2022-11-09T07:55:33.418Z,12.32
2022-11-09T07:58:03.296Z,12.38
2022-11-09T08:00:34.880Z,12.28
2022-11-09T08:03:02.983Z,12.40
2022-11-09T08:05:31.189Z,12.41
2022-11-09T08:08:00.483Z,12.46
2022-11-09T08:10:30.246Z,12.49
2022-11-09T08:13:00.150Z,12.51
2022-11-09T08:15:28.392Z,12.52
2022-11-09T08:18:00.882Z,12.54
2022-11-09T08:20:29.561Z,12.51
2022-11-09T08:23:03.360Z,12.57
2022-11-09T08:25:31.974Z,12.63
2022-11-09T08:28:00.016Z,12.65
2022-11-09T08:30:28.220Z,12.69
2022-11-09T08:32:57.425Z,12.72
2022-11-09T08:35:25.901Z,12.80
2022-11-09T08:37:54.835Z,12.82
2022-11-09T08:40:25.248Z,12.87
2022-11-09T08:42:53.753Z,12.85
2022-11-09T08:45:22.929Z,12.83
2022-11-09T08:48:00.047Z,12.82
2022-11-09T08:50:28.917Z,12.84
2022-11-09T08:52:57.302Z,12.92
2022-11-09T08:55:25.908Z,12.94
2022-11-09T08:57:55.345Z,12.94
2022-11-09T09:00:23.736Z,12.90
2022-11-09T09:02:51.656Z,12.89
2022-11-09T09:05:21.224Z,12.89
2022-11-09T09:07:49.079Z,12.89
2022-11-09T09:10:17.026Z,12.89
2022-11-09T09:12:44.879Z,12.91
2022-11-09T09:15:12.940Z,12.89
2022-11-09T09:17:40.767Z,12.94
2022-11-09T09:20:08.938Z,12.93
2022-11-09T09:22:38.272Z,12.93
2022-11-09T09:25:07.187Z,12.95
2022-11-09T09:27:35.111Z,12.97
2022-11-09T09:30:03.372Z,12.99
2022-11-09T09:32:31.234Z,13.01
2022-11-09T09:34:59.070Z,13.01
2022-11-09T09:37:26.878Z,13.01
2022-11-09T09:39:57.114Z,12.99
2022-11-09T09:42:31.781Z,13.00
2022-11-09T09:45:04.042Z,13.01
2022-11-09T09:47:45.324Z,13.00
2022-11-09T09:50:18.799Z,13.01
2022-11-09T09:53:17.566Z,13.02
2022-11-09T09:55:44.624Z,13.01
2022-11-09T09:58:14.839Z,12.98
2022-11-09T10:00:43.470Z,12.98
2022-11-09T10:03:18.393Z,12.98
2022-11-09T10:06:06.171Z,12.99
2022-11-09T10:08:43.940Z,12.87
2022-11-09T10:11:24.127Z,12.95
2022-11-09T10:14:04.909Z,12.97
2022-11-09T10:16:38.586Z,13.00
2022-11-09T10:19:25.380Z,13.02
2022-11-09T10:22:01.296Z,13.05
2022-11-09T10:24:58.648Z,13.09
2022-11-09T10:27:36.166Z,13.10
2022-11-09T10:30:13.117Z,13.14
2022-11-09T10:32:43.384Z,13.12
2022-11-09T10:35:19.582Z,13.14
2022-11-09T10:37:49.990Z,13.19
2022-11-09T10:40:22.596Z,13.22
2022-11-09T10:43:12.812Z,13.32
2022-11-09T10:46:04.775Z,13.36
2022-11-09T10:48:52.226Z,13.42
2022-11-09T10:51:41.559Z,13.49
2022-11-09T10:54:31.175Z,13.60
2022-11-09T10:57:19.222Z,13.59
2022-11-09T11:00:15.876Z,13.66
2022-11-09T11:03:12.383Z,13.69
2022-11-09T11:06:00.563Z,13.75
2022-11-09T11:08:49.296Z,13.69
2022-11-09T11:11:38.387Z,13.73
2022-11-09T11:14:31.184Z,13.69
2022-11-09T11:17:27.235Z,13.66
2022-11-09T11:20:28.485Z,13.60
2022-11-09T11:23:18.281Z,13.57
2022-11-09T11:26:21.654Z,13.50
2022-11-09T11:29:19.149Z,13.42
2022-11-09T11:32:11.024Z,13.32
2022-11-09T11:35:00.645Z,13.26
2022-11-09T11:37:59.732Z,13.16
2022-11-09T11:41:00.864Z,13.09
2022-11-09T11:43:55.276Z,13.05
2022-11-09T11:46:47.232Z,12.99
2022-11-09T11:49:56.297Z,12.96
2022-11-09T11:52:58.149Z,12.95
2022-11-09T11:56:11.234Z,12.96
2022-11-09T11:59:30.271Z,12.88
2022-11-09T12:02:35.384Z,12.82
2022-11-09T12:05:50.457Z,12.84
2022-11-09T12:09:08.278Z,12.83
2022-11-09T12:12:06.538Z,12.85
2022-11-09T12:15:03.660Z,12.83
2022-11-09T12:18:01.503Z,12.82
2022-11-09T12:20:58.467Z,12.80
2022-11-09T12:24:02.597Z,12.80
2022-11-09T12:27:18.312Z,12.79
2022-11-09T12:30:13.950Z,12.80
2022-11-09T12:33:04.407Z,12.79
2022-11-09T12:35:55.605Z,12.84
2022-11-09T12:38:50.019Z,12.93
2022-11-09T12:41:39.971Z,12.95
2022-11-09T12:44:30.353Z,12.91
2022-11-09T12:47:23.464Z,12.99
2022-11-09T12:50:14.829Z,13.00
2022-11-09T12:53:04.146Z,13.02
2022-11-09T12:55:56.385Z,12.99
2022-11-09T12:58:44.805Z,13.03
2022-11-09T13:01:50.746Z,13.07
2022-11-09T13:04:37.547Z,13.07
2022-11-09T13:07:49.690Z,13.10
2022-11-09T13:10:38.540Z,13.11
2022-11-09T13:13:26.283Z,13.11
2022-11-09T13:16:33.412Z,13.10
2022-11-09T13:19:54.267Z,13.08
2022-11-09T13:23:01.630Z,13.08
2022-11-09T13:25:53.007Z,13.03
2022-11-09T13:29:01.171Z,13.11
2022-11-09T13:32:03.599Z,13.08
2022-11-09T13:34:51.336Z,13.01
2022-11-09T13:37:54.660Z,13.04
2022-11-09T13:40:47.024Z,13.04
2022-11-09T13:43:34.740Z,13.04
2022-11-09T13:46:27.322Z,12.98
2022-11-09T13:49:47.469Z,13.00
2022-11-09T13:52:58.977Z,12.94
2022-11-09T13:55:45.581Z,12.88
2022-11-09T13:58:36.493Z,12.84
2022-11-09T14:01:34.343Z,12.84
2022-11-09T14:04:26.555Z,12.88
2022-11-09T14:07:21.210Z,12.84
2022-11-09T14:10:18.811Z,12.83
2022-11-09T14:13:20.406Z,12.82
2022-11-09T14:16:15.313Z,12.76
2022-11-09T14:19:14.015Z,12.82
2022-11-09T14:22:00.266Z,12.81
2022-11-09T14:24:48.191Z,12.78
2022-11-09T14:27:34.656Z,12.73
2022-11-09T14:30:23.397Z,12.72
2022-11-09T14:33:24.859Z,12.71
2022-11-09T14:36:12.809Z,12.69
2022-11-09T14:39:02.203Z,12.67
2022-11-09T14:41:50.617Z,12.68
2022-11-09T14:44:42.169Z,12.64
2022-11-09T14:47:31.506Z,12.61
2022-11-09T14:50:21.105Z,12.60
2022-11-09T14:53:07.980Z,12.60
2022-11-09T14:55:56.203Z,12.48
2022-11-09T14:58:45.393Z,12.45
2022-11-09T15:01:32.490Z,12.52
2022-11-09T15:04:21.310Z,12.50
2022-11-09T15:07:08.280Z,12.53
2022-11-09T15:09:58.711Z,12.55
2022-11-09T15:12:49.891Z,12.52
2022-11-09T15:15:38.690Z,12.51
2022-11-09T15:18:33.447Z,12.51
2022-11-09T15:21:34.453Z,12.49
2022-11-09T15:24:21.810Z,12.46
2022-11-09T15:27:30.625Z,12.51
2022-11-09T15:30:35.778Z,12.45
2022-11-09T15:33:26.659Z,12.48
2022-11-09T15:36:38.961Z,12.49
2022-11-09T15:39:27.315Z,12.46
2022-11-09T15:42:14.400Z,12.46
2022-11-09T15:45:01.137Z,12.43
2022-11-09T15:47:52.976Z,12.42
2022-11-09T15:50:40.930Z,12.37
2022-11-09T15:53:27.835Z,12.36
2022-11-09T15:56:18.487Z,12.35
2022-11-09T15:59:04.915Z,12.37
2022-11-09T16:01:51.181Z,12.38
2022-11-09T16:04:37.579Z,12.38
2022-11-09T16:07:25.282Z,12.35
2022-11-09T16:10:14.295Z,12.35
2022-11-09T16:13:00.468Z,12.31
2022-11-09T16:15:46.966Z,12.27
2022-11-09T16:18:34.093Z,12.28
2022-11-09T16:21:20.617Z,12.28
2022-11-09T16:24:09.472Z,12.30
2022-11-09T16:26:55.987Z,12.29
2022-11-09T16:29:42.468Z,12.27
2022-11-09T16:32:29.047Z,12.25
2022-11-09T16:35:26.600Z,12.27
2022-11-09T16:38:13.897Z,12.30
2022-11-09T16:41:04.569Z,12.33
2022-11-09T16:43:53.737Z,12.36
2022-11-09T16:46:42.857Z,12.32
2022-11-09T16:49:29.720Z,12.37
2022-11-09T16:52:16.198Z,12.36
2022-11-09T16:55:02.775Z,12.36
2022-11-09T16:57:50.638Z,12.33
2022-11-09T17:01:03.892Z,12.29
2022-11-09T17:03:43.483Z,12.26
2022-11-09T17:06:30.031Z,12.24
2022-11-09T17:09:17.443Z,12.19
2022-11-09T17:12:03.978Z,12.16
2022-11-09T17:14:51.583Z,12.21
2022-11-09T17:17:38.138Z,12.24
2022-11-09T17:20:24.724Z,12.25
2022-11-09T17:23:12.119Z,12.27
2022-11-09T17:26:00.263Z,12.22
2022-11-09T17:28:46.866Z,12.20
2022-11-09T17:31:34.495Z,12.18
2022-11-09T17:34:21.023Z,12.17
2022-11-09T17:37:07.468Z,12.16
2022-11-09T17:39:53.977Z,12.17
2022-11-09T17:42:40.418Z,12.16
2022-11-09T17:45:26.885Z,12.13
2022-11-09T17:48:14.504Z,12.10
2022-11-09T17:51:01.116Z,12.10
2022-11-09T17:53:47.786Z,12.13
2022-11-09T17:56:35.067Z,12.03
2022-11-09T17:59:21.428Z,12.11
2022-11-09T18:02:08.299Z,12.04
2022-11-09T18:04:56.191Z,12.09
2022-11-09T18:07:42.884Z,12.02
2022-11-09T18:10:29.357Z,12.07
2022-11-09T18:13:17.869Z,12.11
2022-11-09T18:16:06.958Z,12.16
2022-11-09T18:18:53.534Z,12.17
2022-11-09T18:21:41.442Z,12.14
2022-11-09T18:24:28.099Z,12.12
2022-11-09T18:27:14.308Z,12.10
2022-11-09T18:30:02.401Z,12.12
2022-11-09T18:32:49.191Z,12.09
2022-11-09T18:35:35.749Z,11.93
2022-11-09T18:38:28.983Z,12.03
2022-11-09T18:41:18.150Z,12.06
2022-11-09T18:44:04.516Z,12.05
2022-11-09T18:46:51.327Z,12.04
2022-11-09T18:49:37.462Z,12.06
2022-11-09T18:52:24.282Z,12.07
2022-11-09T18:55:12.353Z,12.08
2022-11-09T18:57:58.920Z,12.11
2022-11-09T19:00:46.075Z,12.13
2022-11-09T19:03:32.964Z,12.14
2022-11-09T19:06:21.501Z,12.03
2022-11-09T19:09:27.739Z,11.98
2022-11-09T19:12:15.682Z,12.10
2022-11-09T19:15:02.106Z,12.11
2022-11-09T19:17:49.946Z,12.11
2022-11-09T19:20:39.215Z,12.13
2022-11-09T19:23:32.853Z,12.14
2022-11-09T19:26:21.516Z,12.12
2022-11-09T19:29:10.390Z,12.12
2022-11-09T19:31:56.890Z,12.12
2022-11-09T19:34:43.613Z,12.12
2022-11-09T19:37:29.904Z,12.14
2022-11-09T19:40:16.923Z,12.13
2022-11-09T19:43:03.377Z,12.13
2022-11-09T19:45:51.328Z,12.11
2022-11-09T19:48:37.848Z,12.09
2022-11-09T19:51:24.861Z,12.08
2022-11-09T19:54:14.359Z,12.09
2022-11-09T19:57:00.780Z,12.10
2022-11-09T19:59:47.367Z,12.10
2022-11-09T20:02:35.214Z,12.05
2022-11-09T20:05:21.764Z,11.82
2022-11-09T20:08:08.228Z,11.94
2022-11-09T20:10:55.476Z,11.76
2022-11-09T20:13:42.030Z,11.72
2022-11-09T20:16:29.000Z,11.63
2022-11-09T20:19:16.551Z,11.50
2022-11-09T20:22:03.235Z,11.42
2022-11-09T20:24:49.709Z,11.33
2022-11-09T20:27:35.977Z,11.27
2022-11-09T20:30:22.701Z,11.25
2022-11-09T20:33:10.544Z,11.17
2022-11-09T20:35:58.327Z,11.21
2022-11-09T20:38:44.739Z,11.16
2022-11-09T20:41:31.381Z,11.14
2022-11-09T20:44:17.628Z,11.10
2022-11-09T20:47:04.704Z,11.01
2022-11-09T20:49:51.324Z,11.05
2022-11-09T20:52:39.136Z,11.05
2022-11-09T20:55:25.897Z,10.95
2022-11-09T20:58:13.589Z,10.90
2022-11-09T21:01:02.215Z,10.93
2022-11-09T21:03:50.726Z,11.01
2022-11-09T21:06:37.354Z,11.11
2022-11-09T21:09:25.347Z,11.23
2022-11-09T21:12:24.892Z,11.33
2022-11-09T21:15:14.021Z,11.28
2022-11-09T21:18:00.564Z,11.18
2022-11-09T21:20:47.059Z,11.05
2022-11-09T21:23:51.395Z,10.92
2022-11-09T21:26:56.841Z,10.80
2022-11-09T21:29:52.579Z,10.68
2022-11-09T21:32:39.383Z,10.68
2022-11-09T21:35:26.362Z,10.66
2022-11-09T21:38:12.927Z,10.62
2022-11-09T21:41:05.386Z,10.60
2022-11-09T21:43:55.680Z,10.58
2022-11-09T21:46:43.604Z,10.44
2022-11-09T21:49:30.672Z,10.46
2022-11-09T21:52:17.201Z,10.50
2022-11-09T21:55:03.339Z,10.42
2022-11-09T21:57:50.016Z,10.37
2022-11-09T22:00:38.059Z,10.35
2022-11-09T22:03:24.632Z,10.48
2022-11-09T22:06:11.479Z,10.60
2022-11-09T22:08:57.870Z,10.73
2022-11-09T22:12:02.632Z,10.79
2022-11-09T22:15:07.015Z,10.87
2022-11-09T22:17:55.828Z,10.94
2022-11-09T22:20:56.331Z,10.98
2022-11-09T22:23:42.558Z,11.05
2022-11-09T22:26:30.737Z,11.09
2022-11-09T22:29:17.322Z,11.14
2022-11-09T22:32:03.959Z,11.18
2022-11-09T22:34:51.786Z,11.23
2022-11-09T22:37:38.171Z,11.24
2022-11-09T22:40:24.710Z,11.23
2022-11-09T22:43:11.606Z,11.25
2022-11-09T22:46:03.692Z,11.24
2022-11-09T22:48:50.437Z,11.11
2022-11-09T22:51:38.278Z,11.27
2022-11-09T22:54:24.542Z,11.26
2022-11-09T22:57:11.411Z,11.21
2022-11-09T22:59:57.910Z,11.22
2022-11-09T23:02:44.382Z,11.23
2022-11-09T23:05:31.099Z,11.28
2022-11-09T23:08:18.857Z,11.31
2022-11-09T23:11:06.603Z,11.36
2022-11-09T23:13:53.868Z,11.38
2022-11-09T23:16:40.013Z,11.38
2022-11-09T23:19:25.361Z,11.39
2022-11-09T23:22:11.587Z,11.34
2022-11-09T23:25:16.983Z,11.30
2022-11-09T23:28:03.732Z,11.34
2022-11-09T23:30:49.915Z,11.29
2022-11-09T23:33:36.222Z,11.29
2022-11-09T23:36:23.582Z,11.21
2022-11-09T23:39:10.083Z,11.29
2022-11-09T23:41:57.852Z,11.21
2022-11-09T23:44:44.248Z,11.31
2022-11-09T23:47:30.910Z,11.27
2022-11-09T23:50:17.871Z,11.32
2022-11-09T23:53:04.266Z,11.28
2022-11-09T23:55:50.832Z,11.28
2022-11-09T23:58:39.428Z,11.22
